Time;durP1;ratioP1;P1;durP2;ratioP2;P2;SDS_P1;SDS_P2;PMS_P1;PMS_P2;Temp;Humidity;BMP_temperature;BMP_pressure;BME280_temperature;BME280_humidity;BME280_pressure;Samples;Min_cycle;Max_cycle;Signal;HPM_P1;HPM_P2
2023/12/24 00:01:16;;;;;;;1.10;1.10;;;;;;;-1.81;100.00;96086.59;4770642;29;20068;-81
2023/12/24 00:03:43;;;;;;;1.10;1.10;;;;;;;-1.86;100.00;96083.88;4783369;30;20063;-80
2023/12/24 00:06:11;;;;;;;1.02;1.02;;;;;;;-1.82;100.00;96079.72;4769926;29;20151;-81
2023/12/24 00:08:38;;;;;;;1.00;1.00;;;;;;;-1.82;100.00;96085.03;4769933;29;20160;-81
2023/12/24 00:11:05;;;;;;;1.10;1.10;;;;;;;-1.85;100.00;96084.66;4783769;30;20142;-81
2023/12/24 00:13:33;;;;;;;1.00;1.00;;;;;;;-1.86;100.00;96085.72;4769941;30;20392;-81
2023/12/24 00:16:01;;;;;;;1.05;1.05;;;;;;;-1.87;100.00;96082.28;4770143;29;20051;-81
2023/12/24 00:18:28;;;;;;;1.00;1.00;;;;;;;-1.90;100.00;96072.19;4769781;30;20063;-81
2023/12/24 00:20:56;;;;;;;1.02;1.02;;;;;;;-1.89;100.00;96076.44;4769808;30;20079;-82
2023/12/24 00:23:23;;;;;;;1.30;1.20;;;;;;;-1.93;100.00;96070.00;4769951;29;20062;-82
2023/12/24 00:25:50;;;;;;;1.00;1.00;;;;;;;-1.93;100.00;96077.13;4769396;29;20156;-81
2023/12/24 00:28:18;;;;;;;1.08;1.08;;;;;;;-1.96;100.00;96075.75;4768651;30;20066;-81
2023/12/24 00:30:46;;;;;;;1.10;1.10;;;;;;;-1.98;100.00;96070.69;4783260;30;20059;-81
2023/12/24 00:33:13;;;;;;;1.00;1.00;;;;;;;-2.00;100.00;96070.16;4769907;30;20113;-81
2023/12/24 00:35:41;;;;;;;0.98;0.98;;;;;;;-2.08;100.00;96062.59;4769447;30;20070;-81
2023/12/24 00:38:08;;;;;;;1.00;1.00;;;;;;;-2.05;100.00;96058.66;4768326;30;20060;-80
2023/12/24 00:40:35;;;;;;;1.00;1.00;;;;;;;-2.05;100.00;96066.59;4769321;29;20556;-80
2023/12/24 00:43:03;;;;;;;1.02;1.02;;;;;;;-2.11;100.00;96067.56;4769381;30;20400;-80
2023/12/24 00:45:31;;;;;;;1.10;1.10;;;;;;;-2.09;100.00;96068.91;4768209;29;20062;-81
2023/12/24 00:47:58;;;;;;;1.30;1.20;;;;;;;-2.09;100.00;96066.28;4769564;30;20066;-81
2023/12/24 00:50:26;;;;;;;1.00;1.00;;;;;;;-2.08;100.00;96064.44;4782980;30;20063;-81
2023/12/24 00:52:53;;;;;;;1.10;1.10;;;;;;;-2.13;100.00;96059.84;4767602;29;20621;-81
2023/12/24 00:55:21;;;;;;;1.13;1.13;;;;;;;-2.17;100.00;96050.81;4769270;29;20070;-81
2023/12/24 00:57:48;;;;;;;1.10;1.10;;;;;;;-2.13;100.00;96066.97;4767677;30;20058;-82
2023/12/24 01:00:16;;;;;;;0.98;0.98;;;;;;;-2.15;100.00;96056.66;4782601;30;20127;-82
2023/12/24 01:02:45;;;;;;;1.10;1.10;;;;;;;-2.16;100.00;96052.41;4768514;30;20146;-81
2023/12/24 01:05:12;;;;;;;1.00;1.00;;;;;;;-2.25;100.00;96044.06;4782824;29;20071;-79
2023/12/24 01:07:40;;;;;;;1.10;1.10;;;;;;;-2.24;100.00;96042.22;4768365;30;20054;-81
2023/12/24 01:10:08;;;;;;;1.10;1.10;;;;;;;-2.22;100.00;96037.50;4769252;29;20056;-81
2023/12/24 01:12:37;;;;;;;1.10;1.10;;;;;;;-2.20;100.00;96033.59;4767881;30;20047;-80
2023/12/24 01:15:05;;;;;;;0.98;0.98;;;;;;;-2.21;100.00;96029.31;4768909;30;20507;-81
2023/12/24 01:17:32;;;;;;;0.93;0.93;;;;;;;-2.25;100.00;96032.69;4769002;29;20114;-80
2023/12/24 01:19:59;;;;;;;1.17;1.10;;;;;;;-2.28;100.00;96025.22;4768588;29;20087;-80
2023/12/24 01:22:29;;;;;;;1.10;1.10;;;;;;;-2.27;100.00;96032.91;4767264;30;20520;-81
2023/12/24 01:24:56;;;;;;;1.23;1.20;;;;;;;-2.29;100.00;96023.63;4768638;30;20060;-81
2023/12/24 01:27:24;;;;;;;1.00;1.00;;;;;;;-2.32;100.00;96027.53;4782447;30;20138;-80
2023/12/24 01:29:52;;;;;;;1.30;1.20;;;;;;;-2.32;100.00;96032.81;4766787;30;20409;-80
2023/12/24 01:32:20;;;;;;;1.00;1.00;;;;;;;-2.32;100.00;96024.09;4782247;30;20059;-81
2023/12/24 01:34:48;;;;;;;1.10;1.10;;;;;;;-2.32;100.00;96021.47;4781821;30;20117;-81
2023/12/24 01:37:16;;;;;;;1.00;1.00;;;;;;;-2.31;100.00;96015.13;4782234;30;20058;-81
2023/12/24 01:39:43;;;;;;;0.90;0.90;;;;;;;-2.33;100.00;96012.75;4768184;29;20090;-80
2023/12/24 01:42:11;;;;;;;1.10;1.10;;;;;;;-2.33;100.00;96025.94;4767967;30;20110;-81
2023/12/24 01:44:39;;;;;;;1.10;1.10;;;;;;;-2.36;100.00;96020.31;4781982;29;20117;-81
2023/12/24 01:47:07;;;;;;;1.00;1.00;;;;;;;-2.33;100.00;96022.47;4768368;30;20059;-81
2023/12/24 01:49:35;;;;;;;1.08;1.08;;;;;;;-2.32;100.00;96024.91;4782083;29;20051;-81
2023/12/24 01:52:03;;;;;;;0.98;0.98;;;;;;;-2.32;100.00;96024.09;4767275;30;20059;-81
2023/12/24 01:54:31;;;;;;;1.10;1.10;;;;;;;-2.31;100.00;96029.13;4781702;30;20412;-81
2023/12/24 01:56:59;;;;;;;1.30;1.20;;;;;;;-2.29;100.00;96024.41;4781674;29;20060;-81
2023/12/24 01:59:29;;;;;;;1.00;1.00;;;;;;;-2.29;100.00;96027.06;4767258;30;20059;-82
2023/12/24 02:01:57;;;;;;;1.02;1.02;;;;;;;-2.24;100.00;96040.38;4766948;29;20067;-81
2023/12/24 02:04:24;;;;;;;1.00;1.00;;;;;;;-2.23;100.00;96041.16;4781739;29;20052;-81
2023/12/24 02:06:55;;;;;;;1.10;1.10;;;;;;;-2.21;100.00;96047.81;4778903;30;20083;-80
2023/12/24 02:09:22;;;;;;;0.90;0.90;;;;;;;-2.21;100.00;96044.38;4766832;30;20138;-80
2023/12/24 02:11:50;;;;;;;1.13;1.13;;;;;;;-2.17;100.00;96042.88;4767883;29;20055;-81
2023/12/24 02:14:17;;;;;;;1.00;1.00;;;;;;;-2.15;100.00;96040.81;4767624;29;20134;-80
2023/12/24 02:16:49;;;;;;;1.10;1.10;;;;;;;-2.20;100.00;96030.94;4767468;30;20055;-80
2023/12/24 02:19:20;;;;;;;1.10;1.10;;;;;;;-2.20;100.00;96038.06;4767942;29;20412;-81
2023/12/24 02:21:48;;;;;;;1.00;1.00;;;;;;;-2.34;100.00;96031.44;4768271;30;20059;-81
2023/12/24 02:24:16;;;;;;;1.10;1.10;;;;;;;-2.17;100.00;96050.81;4766735;29;20512;-81
2023/12/24 02:27:12;;;;;;;1.10;1.10;;;;;;;-2.14;100.00;96050.31;4767690;30;20459;-81
2023/12/24 02:29:44;;;;;;;1.08;1.08;;;;;;;-2.13;100.00;96051.13;4767714;29;20142;-81
2023/12/24 02:32:14;;;;;;;0.90;0.90;;;;;;;-2.17;100.00;96044.72;4766803;30;20052;-81
2023/12/24 02:34:47;;;;;;;1.02;1.02;;;;;;;-2.22;100.00;96043.59;4778135;30;20131;-81
2023/12/24 02:37:18;;;;;;;1.00;1.00;;;;;;;-2.22;100.00;96042.78;4748699;30;20208;-81
2023/12/24 02:39:45;;;;;;;1.10;1.10;;;;;;;-2.24;100.00;96047.50;4749441;30;20066;-80
2023/12/24 02:42:12;;;;;;;0.93;0.93;;;;;;;-2.27;100.00;96045.34;4749203;30;20113;-81
2023/12/24 02:44:42;;;;;;;1.05;1.05;;;;;;;-2.28;100.00;96046.34;4763334;30;20064;-80
2023/12/24 02:47:10;;;;;;;1.40;1.30;;;;;;;-2.28;100.00;96044.53;4749745;29;20109;-80
2023/12/24 02:49:38;;;;;;;1.20;1.20;;;;;;;-2.28;100.00;96041.88;4749779;30;20060;-80
2023/12/24 02:52:05;;;;;;;1.10;1.10;;;;;;;-2.28;100.00;96043.72;4763396;30;20574;-80
2023/12/24 02:54:34;;;;;;;1.00;1.00;;;;;;;-2.29;100.00;96050.84;4749757;29;20056;-80
2023/12/24 02:57:01;;;;;;;1.10;1.10;;;;;;;-2.26;100.00;96046.91;4763400;30;20083;-80
2023/12/24 02:59:29;;;;;;;1.10;1.10;;;;;;;-2.23;100.00;96043.81;4749830;29;20133;-79
2023/12/24 03:01:56;;;;;;;1.08;1.08;;;;;;;-2.23;100.00;96054.38;4748130;30;20453;-80
2023/12/24 03:04:26;;;;;;;0.95;0.95;;;;;;;-2.25;100.00;96046.69;4763412;30;20052;-81
2023/12/24 03:06:54;;;;;;;0.90;0.90;;;;;;;-2.21;100.00;96049.66;4755070;30;20060;-80
2023/12/24 03:09:21;;;;;;;1.00;1.00;;;;;;;-2.16;100.00;96055.03;4766210;30;20052;-79
2023/12/24 03:11:51;;;;;;;1.10;1.10;;;;;;;-2.16;100.00;96057.69;4765990;30;20055;-79
2023/12/24 03:14:18;;;;;;;1.23;1.20;;;;;;;-2.12;100.00;96066.75;4766322;30;20549;-81
2023/12/24 03:16:45;;;;;;;0.90;0.90;;;;;;;-2.12;100.00;96068.59;4767535;30;20158;-79
2023/12/24 03:19:13;;;;;;;1.17;1.17;;;;;;;-2.13;100.00;96064.34;4770859;30;20090;-80
2023/12/24 03:21:42;;;;;;;1.00;1.00;;;;;;;-2.13;100.00;96066.97;4774888;30;20047;-81
2023/12/24 03:24:09;;;;;;;1.10;1.10;;;;;;;-2.14;100.00;96073.31;4772727;30;20120;-80
2023/12/24 03:26:36;;;;;;;1.00;1.00;;;;;;;-2.12;100.00;96077.31;4774071;30;20063;-80
2023/12/24 03:29:05;;;;;;;1.10;1.10;;;;;;;-2.10;100.00;96079.72;4771336;30;20080;-81
2023/12/24 03:31:32;;;;;;;1.02;1.02;;;;;;;-2.14;100.00;96075.97;4784684;30;20074;-80
2023/12/24 03:33:59;;;;;;;1.00;1.00;;;;;;;-2.14;100.00;96078.59;4770803;29;20146;-80
2023/12/24 03:36:37;;;;;;;1.10;1.10;;;;;;;-2.14;100.00;96086.53;4770305;29;20051;-80
2023/12/24 03:39:05;;;;;;;1.00;1.00;;;;;;;-2.21;100.00;96076.09;4769350;30;20111;-80
2023/12/24 03:41:32;;;;;;;1.00;1.00;;;;;;;-2.21;100.00;96079.53;4770999;30;20060;-80
2023/12/24 03:43:59;;;;;;;1.30;1.20;;;;;;;-2.20;100.00;96085.63;4772032;30;20067;-80
2023/12/24 03:46:29;;;;;;;1.27;1.20;;;;;;;-2.19;100.00;96087.22;4758792;30;20083;-80
2023/12/24 03:48:56;;;;;;;1.10;1.10;;;;;;;-2.22;100.00;96085.84;4790810;29;20056;-81
2023/12/24 03:51:24;;;;;;;0.95;0.95;;;;;;;-2.28;100.00;96084.16;4790375;30;20109;-79
2023/12/24 03:53:52;;;;;;;1.10;1.10;;;;;;;-2.27;100.00;96071.75;4784477;29;20051;-80
2023/12/24 03:56:20;;;;;;;1.10;1.10;;;;;;;-2.24;100.00;96076.56;4770640;29;20107;-80
2023/12/24 03:58:47;;;;;;;1.10;1.10;;;;;;;-2.23;100.00;96078.16;4770162;29;20058;-80
2023/12/24 04:01:14;;;;;;;1.08;1.08;;;;;;;-2.26;100.00;96095.28;4767365;30;20047;-81
2023/12/24 04:03:44;;;;;;;1.10;1.10;;;;;;;-2.25;100.00;96086.31;4766534;30;20093;-80
2023/12/24 04:06:15;;;;;;;0.90;0.90;;;;;;;-2.23;100.00;96092.19;4764642;30;20071;-81
2023/12/24 04:08:42;;;;;;;1.10;1.10;;;;;;;-2.29;100.00;96087.81;4777082;30;20163;-86
2023/12/24 04:11:18;;;;;;;1.10;1.10;;;;;;;-2.16;100.00;96086.75;4763180;30;20048;-81
2023/12/24 04:13:47;;;;;;;1.10;1.10;;;;;;;-2.16;100.00;96083.31;4757450;30;20508;-83
2023/12/24 04:16:17;;;;;;;0.90;0.90;;;;;;;-2.15;100.00;96079.63;4780630;30;20059;-81
2023/12/24 04:18:45;;;;;;;1.00;1.00;;;;;;;-2.17;100.00;96092.28;4761043;30;20052;-82
2023/12/24 04:21:13;;;;;;;1.30;1.20;;;;;;;-2.21;100.00;96091.94;4780547;30;20424;-81
2023/12/24 04:23:40;;;;;;;1.30;1.20;;;;;;;-2.28;100.00;96084.16;4780686;30;20058;-82
2023/12/24 04:26:07;;;;;;;0.90;0.90;;;;;;;-2.29;100.00;96095.75;4770673;30;20531;-82
2023/12/24 04:28:36;;;;;;;1.10;1.10;;;;;;;-2.28;100.00;96096.53;4769369;30;20056;-83
2023/12/24 04:31:04;;;;;;;1.10;1.10;;;;;;;-2.36;100.00;96087.16;4769393;30;20498;-82
2023/12/24 04:33:31;;;;;;;1.10;1.10;;;;;;;-2.31;100.00;96092.53;4763565;29;20063;-81
2023/12/24 04:36:02;;;;;;;1.10;1.10;;;;;;;-2.25;100.00;96110.09;4768526;30;20063;-82
2023/12/24 04:38:29;;;;;;;1.05;1.05;;;;;;;-2.26;100.00;96103.19;4776221;29;20083;-83
2023/12/24 04:41:00;;;;;;;1.10;1.10;;;;;;;-2.25;100.00;96107.47;4548129;29;10000667;-82
2023/12/24 04:43:28;;;;;;;1.10;1.10;;;;;;;-2.23;100.00;96120.41;4780684;29;20293;-86
2023/12/24 04:45:55;;;;;;;1.00;1.00;;;;;;;-2.38;100.00;96107.72;4748162;30;20139;-81
2023/12/24 04:48:23;;;;;;;1.27;1.17;;;;;;;-2.29;100.00;96113.44;4780990;30;20058;-81
2023/12/24 04:50:53;;;;;;;1.15;1.15;;;;;;;-2.30;100.00;96112.66;4750919;30;20051;-81
2023/12/24 04:53:23;;;;;;;1.00;1.00;;;;;;;-2.25;100.00;96118.03;4763157;30;20553;-80
2023/12/24 04:55:51;;;;;;;0.90;0.90;;;;;;;-2.30;100.00;96104.72;4785095;30;20047;-80
2023/12/24 04:58:19;;;;;;;1.10;1.10;;;;;;;-2.33;100.00;96110.47;4771850;30;20590;-80
2023/12/24 05:00:46;;;;;;;1.10;1.10;;;;;;;-2.28;100.00;96107.94;4772768;30;20574;-80
2023/12/24 05:03:14;;;;;;;1.30;1.20;;;;;;;-2.26;100.00;96110.31;4769176;30;20056;-80
2023/12/24 05:05:42;;;;;;;1.25;1.20;;;;;;;-2.26;100.00;96108.47;4752413;30;20095;-81
2023/12/24 05:08:10;;;;;;;0.93;0.93;;;;;;;-2.21;100.00;96118.34;4767456;30;20125;-80
2023/12/24 05:10:39;;;;;;;1.10;1.10;;;;;;;-2.32;100.00;96098.88;4766962;30;20546;-80
2023/12/24 05:13:11;;;;;;;1.20;1.20;;;;;;;-2.21;100.00;96119.16;4780713;30;20062;-79
2023/12/24 05:15:39;;;;;;;1.00;1.00;;;;;;;-2.18;100.00;96133.72;4780962;29;20058;-80
2023/12/24 05:18:08;;;;;;;1.00;1.00;;;;;;;-2.22;100.00;96133.41;4781299;30;20530;-80
2023/12/24 05:20:38;;;;;;;1.02;1.02;;;;;;;-2.23;100.00;96128.34;4782055;29;20090;-79
2023/12/24 05:23:05;;;;;;;0.80;0.80;;;;;;;-2.16;100.00;96129.03;4782515;30;20055;-80
2023/12/24 05:25:33;;;;;;;1.10;1.10;;;;;;;-2.17;100.00;96127.44;4768777;30;20077;-80
2023/12/24 05:28:03;;;;;;;1.10;1.10;;;;;;;-2.13;100.00;96135.69;4767438;30;20051;-80
2023/12/24 05:30:30;;;;;;;1.00;1.00;;;;;;;-2.14;100.00;96140.16;4768765;30;20625;-80
2023/12/24 05:32:57;;;;;;;1.10;1.10;;;;;;;-2.09;100.00;96139.47;4767100;29;20058;-80
2023/12/24 05:35:25;;;;;;;0.98;0.98;;;;;;;-2.10;100.00;96140.50;4773961;30;20055;-81
2023/12/24 05:37:52;;;;;;;1.10;1.10;;;;;;;-2.10;100.00;96153.72;4781560;30;20056;-80
2023/12/24 05:40:19;;;;;;;0.90;0.90;;;;;;;-2.11;100.00;96154.75;4768165;30;20499;-80
2023/12/24 05:42:47;;;;;;;1.27;1.20;;;;;;;-2.11;100.00;96157.41;4768093;30;20058;-80
2023/12/24 05:45:14;;;;;;;1.13;1.13;;;;;;;-2.11;100.00;96157.41;4768201;29;20055;-80
2023/12/24 05:47:41;;;;;;;1.10;1.10;;;;;;;-2.15;100.00;96149.16;4768269;29;20051;-80
2023/12/24 05:50:09;;;;;;;1.02;1.02;;;;;;;-2.11;100.00;96165.31;4768394;30;20079;-80
2023/12/24 05:52:37;;;;;;;1.08;1.08;;;;;;;-2.15;100.00;96165.00;4768112;30;20055;-80
2023/12/24 05:55:08;;;;;;;1.00;1.00;;;;;;;-2.15;100.00;96172.09;4768114;29;20134;-81
2023/12/24 05:57:38;;;;;;;1.02;1.02;;;;;;;-2.12;100.00;96171.66;4768151;30;20123;-79
2023/12/24 06:00:10;;;;;;;0.98;0.98;;;;;;;-2.15;100.00;96172.94;4766874;30;20142;-80
2023/12/24 06:02:44;;;;;;;1.10;1.10;;;;;;;-2.11;100.00;96181.19;4767869;30;20058;-80
2023/12/24 06:05:13;;;;;;;1.10;1.10;;;;;;;-2.13;100.00;96188.53;4767995;30;20055;-79
2023/12/24 06:07:41;;;;;;;1.02;1.02;;;;;;;-2.11;100.00;96183.81;4766371;30;20062;-79
2023/12/24 06:10:08;;;;;;;0.90;0.90;;;;;;;-2.07;100.00;96192.91;4768148;29;20117;-81
2023/12/24 06:12:36;;;;;;;1.10;1.10;;;;;;;-2.10;100.00;96185.41;4767808;30;20055;-81
2023/12/24 06:15:04;;;;;;;1.02;1.02;;;;;;;-2.08;100.00;96194.72;4768107;29;20067;-80
2023/12/24 06:17:34;;;;;;;1.10;1.10;;;;;;;-2.05;100.00;96194.28;4767484;30;20511;-81
2023/12/24 06:20:04;;;;;;;0.80;0.80;;;;;;;-2.05;100.00;96194.28;4767583;30;20067;-81
2023/12/24 06:22:34;;;;;;;1.10;1.10;;;;;;;-2.10;100.00;96191.53;4751651;30;20146;-80
2023/12/24 06:25:20;;;;;;;1.17;1.17;;;;;;;-2.06;100.00;96195.28;4752318;30;20064;-80
2023/12/24 06:27:48;;;;;;;1.00;1.00;;;;;;;-2.05;100.00;96201.38;4767350;30;20055;-81
2023/12/24 06:30:16;;;;;;;1.20;1.20;;;;;;;-2.06;100.00;96202.44;4767681;30;20058;-80
2023/12/24 06:32:57;;;;;;;1.10;1.10;;;;;;;-2.00;100.00;96206.78;4766017;30;20052;-79
2023/12/24 06:35:32;;;;;;;1.30;1.20;;;;;;;-2.04;100.00;96203.00;4763569;30;20146;-81
2023/12/24 06:38:03;;;;;;;1.33;1.23;;;;;;;-2.03;100.00;96223.91;4763182;30;20127;-81
2023/12/24 06:40:30;;;;;;;0.90;0.90;;;;;;;-2.03;100.00;96223.91;4750202;30;20448;-80
2023/12/24 06:42:57;;;;;;;1.10;1.10;;;;;;;-2.02;100.00;96227.38;4749774;30;20084;-80
2023/12/24 06:45:24;;;;;;;1.15;1.10;;;;;;;-2.04;100.00;96216.22;4749515;30;20084;-80
2023/12/24 06:47:53;;;;;;;1.10;1.10;;;;;;;-2.04;100.00;96218.88;4749683;30;20064;-80
2023/12/24 06:50:22;;;;;;;1.10;1.10;;;;;;;-2.04;100.00;96224.16;4763309;30;20083;-80
2023/12/24 06:52:49;;;;;;;1.30;1.20;;;;;;;-2.04;100.00;96221.50;4749308;29;20052;-80
2023/12/24 06:55:17;;;;;;;1.10;1.10;;;;;;;-2.04;100.00;96224.94;4749658;30;20052;-81
2023/12/24 06:57:45;;;;;;;1.10;1.10;;;;;;;-2.04;100.00;96224.94;4754093;30;20431;-81
2023/12/24 07:00:13;;;;;;;1.00;1.00;;;;;;;-2.01;100.00;96228.97;4772059;30;20055;-80
2023/12/24 07:02:40;;;;;;;1.30;1.20;;;;;;;-1.98;100.00;96233.78;4773416;30;20481;-81
2023/12/24 07:05:07;;;;;;;1.10;1.10;;;;;;;-1.94;100.00;96234.13;4773732;30;20056;-81
2023/12/24 07:07:35;;;;;;;1.05;1.05;;;;;;;-1.90;100.00;96232.63;4773173;30;20064;-81
2023/12/24 07:10:02;;;;;;;1.00;1.00;;;;;;;-1.91;100.00;96231.03;4773665;30;20052;-81
2023/12/24 07:12:31;;;;;;;0.90;0.90;;;;;;;-1.90;100.00;96241.38;4773383;29;20140;-81
2023/12/24 07:14:58;;;;;;;1.10;1.10;;;;;;;-1.94;100.00;96234.94;4772955;29;20055;-81
2023/12/24 07:17:25;;;;;;;0.98;0.98;;;;;;;-1.94;100.00;96237.56;4773021;30;20466;-80
2023/12/24 07:19:53;;;;;;;1.00;1.00;;;;;;;-1.88;100.00;96241.91;4772622;29;20059;-81
2023/12/24 07:22:20;;;;;;;1.10;1.10;;;;;;;-1.87;100.00;96240.91;4773114;29;20055;-80
2023/12/24 07:24:47;;;;;;;1.02;1.02;;;;;;;-1.84;100.00;96235.13;4772016;30;20058;-79
2023/12/24 07:27:15;;;;;;;0.95;0.95;;;;;;;-1.84;100.00;96244.91;4773313;30;20134;-81
2023/12/24 07:29:42;;;;;;;1.10;1.10;;;;;;;-1.90;100.00;96244.00;4772713;30;20055;-80
2023/12/24 07:32:10;;;;;;;1.00;1.00;;;;;;;-1.87;100.00;96237.47;4786786;30;20544;-80
2023/12/24 07:34:37;;;;;;;1.10;1.10;;;;;;;-1.84;100.00;96244.91;4773091;29;20048;-80
2023/12/24 07:37:04;;;;;;;1.13;1.10;;;;;;;-1.82;100.00;96254.22;4773247;30;20142;-81
2023/12/24 07:39:33;;;;;;;1.30;1.20;;;;;;;-1.79;100.00;96243.19;4772993;30;20142;-80
2023/12/24 07:42:00;;;;;;;1.08;1.08;;;;;;;-1.72;100.00;96242.22;4756938;30;20420;-81
2023/12/24 07:44:30;;;;;;;1.00;1.00;;;;;;;-1.80;100.00;96236.28;4772828;30;20055;-81
2023/12/24 07:46:58;;;;;;;0.98;0.98;;;;;;;-1.77;100.00;96235.81;4772727;29;20167;-80
2023/12/24 07:49:26;;;;;;;0.98;0.98;;;;;;;-1.76;100.00;96250.63;4773119;30;20617;-80
2023/12/24 07:51:53;;;;;;;1.17;1.15;;;;;;;-1.76;100.00;96248.00;4772649;30;20060;-80
2023/12/24 07:54:20;;;;;;;1.00;1.00;;;;;;;-1.71;100.00;96251.78;4773165;29;20099;-81
2023/12/24 07:56:49;;;;;;;1.10;1.10;;;;;;;-1.76;100.00;96242.69;4772553;30;20170;-81
2023/12/24 07:59:16;;;;;;;1.10;1.10;;;;;;;-1.71;100.00;96251.78;4771757;30;20537;-81
2023/12/24 08:01:46;;;;;;;1.02;1.02;;;;;;;-1.70;99.96;96250.75;4773085;30;20066;-81
2023/12/24 08:04:13;;;;;;;1.05;1.05;;;;;;;-1.71;99.78;96251.78;4787553;30;20055;-81
2023/12/24 08:07:10;;;;;;;1.10;1.10;;;;;;;-1.75;99.07;96244.31;4772698;30;20051;-81
2023/12/24 08:09:57;;;;;;;0.90;0.90;;;;;;;-1.70;98.78;96248.09;4772641;29;20063;-81
2023/12/24 08:12:25;;;;;;;1.17;1.15;;;;;;;-1.70;98.69;96237.50;4770100;29;20052;-81
2023/12/24 08:14:52;;;;;;;1.05;1.05;;;;;;;-1.66;98.00;96239.47;4768390;30;20508;-81
2023/12/24 08:17:22;;;;;;;1.10;1.10;;;;;;;-1.62;97.94;96242.44;4770330;30;20473;-81
2023/12/24 08:19:54;;;;;;;1.00;1.00;;;;;;;-1.58;97.00;96248.88;4768718;30;20072;-81
2023/12/24 08:22:25;;;;;;;1.10;1.10;;;;;;;-1.62;96.58;96237.97;4783626;30;20048;-81
2023/12/24 08:24:52;;;;;;;1.13;1.13;;;;;;;-1.57;96.11;96245.19;4783664;29;20051;-80
2023/12/24 08:27:31;;;;;;;1.30;1.20;;;;;;;-1.54;96.07;96244.72;4769882;30;20051;-81
2023/12/24 08:30:01;;;;;;;1.05;1.05;;;;;;;-1.59;95.76;96229.56;4772862;30;20583;-81
2023/12/24 08:32:48;;;;;;;;;;;;;;;;;;;;;
2023/12/24 08:35:20;;;;;;;1.08;1.08;;;;;;;-1.68;95.11;96227.50;4772268;30;20589;-81
2023/12/24 08:37:50;;;;;;;1.00;1.00;;;;;;;-1.64;95.21;96239.25;4783463;30;20134;-81
2023/12/24 08:40:27;;;;;;;1.10;1.10;;;;;;;-1.54;95.37;96250.03;4769483;30;20519;-81
2023/12/24 08:42:55;;;;;;;1.10;1.10;;;;;;;-1.52;94.65;96234.69;4783348;30;20416;-81
2023/12/24 08:45:23;;;;;;;1.10;1.10;;;;;;;-1.41;94.58;96247.09;4769861;30;20159;-81
2023/12/24 08:47:50;;;;;;;1.10;1.10;;;;;;;-1.37;94.30;96248.25;4769117;30;20137;-81
2023/12/24 08:50:18;;;;;;;1.10;1.10;;;;;;;-1.43;94.11;96249.16;4768475;30;20550;-81
2023/12/24 08:55:34;;;;;;;1.10;1.10;;;;;;;-1.43;94.59;96241.22;4776754;30;20060;-81
2023/12/24 08:58:06;;;;;;;;;;;;;;;-1.40;94.48;96250.53;4774747;30;20101;-81
2023/12/24 09:00:33;;;;;;;1.13;1.13;;;;;;;-1.44;94.31;96250.22;4773189;30;20071;-81
2023/12/24 09:03:03;;;;;;;1.10;1.10;;;;;;;-1.43;94.33;96264.25;4771858;30;20117;-81
2023/12/24 09:05:33;;;;;;;1.00;1.00;;;;;;;-1.51;94.43;96261.97;4769523;30;20427;-81
2023/12/24 09:08:05;;;;;;;1.00;1.00;;;;;;;-1.50;94.51;96271.50;4769107;30;20055;-82
2023/12/24 09:10:33;;;;;;;1.13;1.13;;;;;;;-1.46;94.52;96281.38;4769484;30;20067;-81
2023/12/24 09:13:03;;;;;;;1.13;1.10;;;;;;;-1.51;93.64;96273.34;4768892;30;20086;-81
2023/12/24 09:15:30;;;;;;;1.15;1.13;;;;;;;-1.58;92.89;96275.31;4767582;30;20142;-82
2023/12/24 09:17:57;;;;;;;1.00;1.00;;;;;;;-1.57;93.10;96271.63;4768496;30;20484;-81
2023/12/24 09:20:27;;;;;;;1.10;1.10;;;;;;;-1.59;92.55;96284.31;4769149;30;20056;-81
2023/12/24 09:22:54;;;;;;;1.00;1.00;;;;;;;-1.62;91.83;96282.09;4768179;30;20059;-81
2023/12/24 09:25:21;;;;;;;1.38;1.27;;;;;;;-1.62;91.79;96282.09;4768580;30;20130;-80
2023/12/24 09:27:51;;;;;;;1.00;1.00;;;;;;;-1.52;91.29;96290.25;4767960;30;20082;-80
2023/12/24 09:30:18;;;;;;;1.00;1.00;;;;;;;-1.50;90.24;96297.97;4768999;30;20078;-80
2023/12/24 09:32:46;;;;;;;1.10;1.10;;;;;;;-1.50;89.80;96284.72;4752852;30;20155;-80
2023/12/24 09:35:13;;;;;;;1.15;1.13;;;;;;;-1.44;89.59;96295.19;4764516;30;20123;-80
2023/12/24 09:37:40;;;;;;;1.23;1.20;;;;;;;-1.37;88.85;96293.22;4750751;30;20060;-80
2023/12/24 09:40:08;;;;;;;1.05;1.05;;;;;;;-1.28;88.69;96285.69;4750809;30;20103;-81
2023/12/24 09:42:38;;;;;;;1.10;1.10;;;;;;;-1.00;88.67;96305.28;4764025;30;20087;-81
2023/12/24 09:45:06;;;;;;;1.17;1.17;;;;;;;-0.48;87.03;96298.00;4750660;30;20420;-82
2023/12/24 09:47:33;;;;;;;1.40;1.30;;;;;;;0.01;86.07;96309.84;4764622;30;20523;-82
2023/12/24 09:50:01;;;;;;;1.00;1.00;;;;;;;0.29;84.94;96304.41;4767100;30;20059;-81
2023/12/24 09:52:33;;;;;;;1.15;1.15;;;;;;;0.34;83.01;96293.88;4767929;30;20078;-81
2023/12/24 09:55:04;;;;;;;1.33;1.23;;;;;;;0.29;82.57;96296.47;4768057;30;20455;-81
2023/12/24 09:57:31;;;;;;;1.08;1.08;;;;;;;0.26;81.40;96304.91;4781572;30;20478;-81
2023/12/24 09:59:58;;;;;;;1.00;1.00;;;;;;;0.10;81.32;96300.44;4781440;30;20051;-81
2023/12/24 10:02:27;;;;;;;1.00;1.00;;;;;;;-0.33;81.18;96299.25;4766556;30;20078;-81
2023/12/24 10:04:54;;;;;;;1.00;1.00;;;;;;;-0.55;82.12;96315.88;4766405;30;20416;-81
2023/12/24 10:07:36;;;;;;;1.30;1.20;;;;;;;-0.69;82.62;96298.66;4767675;30;20419;-81
2023/12/24 10:10:04;;;;;;;0.98;0.98;;;;;;;-0.64;83.19;96304.06;4768193;29;20086;-81
2023/12/24 10:12:31;;;;;;;1.13;1.13;;;;;;;-0.69;83.11;96303.97;4768123;30;20474;-80
2023/12/24 10:15:00;;;;;;;0.85;0.85;;;;;;;-0.78;83.34;96310.72;4768032;29;20063;-81
2023/12/24 10:17:34;;;;;;;1.00;1.00;;;;;;;-0.85;83.36;96313.50;4766568;29;20107;-81
2023/12/24 10:20:04;;;;;;;1.00;1.00;;;;;;;-0.89;83.45;96323.78;4767301;30;20121;-81
2023/12/24 10:22:40;;;;;;;1.10;1.10;;;;;;;-0.92;83.71;96329.53;4767653;30;20076;-81
2023/12/24 10:25:09;;;;;;;1.30;1.20;;;;;;;-1.00;83.89;96335.19;4781568;29;20051;-80
2023/12/24 10:27:36;;;;;;;1.00;1.00;;;;;;;-0.98;84.37;96333.13;4767560;30;20142;-81
2023/12/24 10:30:09;;;;;;;1.00;1.00;;;;;;;-0.94;84.64;96344.84;4767082;30;20170;-81
2023/12/24 10:32:37;;;;;;;1.10;1.10;;;;;;;-1.13;84.78;96333.63;4767023;30;20056;-81
2023/12/24 10:35:05;;;;;;;1.20;1.20;;;;;;;-1.24;85.14;96344.25;4767159;30;20087;-80
2023/12/24 10:37:33;;;;;;;1.10;1.10;;;;;;;-1.33;85.30;96339.31;4781149;30;20052;-80
2023/12/24 10:40:08;;;;;;;1.10;1.10;;;;;;;-1.30;85.60;96346.00;4780882;30;20056;-80
2023/12/24 10:42:40;;;;;;;0.90;0.90;;;;;;;-1.24;85.76;96344.25;4767481;29;20087;-81
2023/12/24 10:45:08;;;;;;;1.30;1.20;;;;;;;-1.22;85.16;96344.81;4767266;30;20530;-81
2023/12/24 10:47:36;;;;;;;1.25;1.20;;;;;;;-1.31;84.51;96352.34;4764926;30;20063;-80
2023/12/24 10:50:04;;;;;;;0.90;0.90;;;;;;;-1.30;84.34;96356.56;4767451;30;20064;-80
2023/12/24 10:52:32;;;;;;;0.98;0.98;;;;;;;-1.35;84.28;96344.03;4767677;30;20135;-80
2023/12/24 10:55:02;;;;;;;1.20;1.20;;;;;;;-1.24;84.85;96355.66;4767110;30;20504;-81
2023/12/24 10:58:02;;;;;;;1.00;1.00;;;;;;;-1.16;85.40;96362.44;4765824;29;20059;-82
2023/12/24 11:00:29;;;;;;;1.10;1.10;;;;;;;-1.14;85.37;96365.63;4766764;30;20101;-81
2023/12/24 11:02:57;;;;;;;1.08;1.08;;;;;;;-1.20;85.12;96377.16;4766238;30;20155;-82
2023/12/24 11:05:58;;;;;;;1.10;1.10;;;;;;;-1.29;83.97;96367.97;4767837;29;20542;-80
2023/12/24 11:08:25;;;;;;;0.90;0.90;;;;;;;-1.35;83.83;96359.91;4746695;30;20118;-82
2023/12/24 11:11:03;;;;;;;1.00;1.00;;;;;;;-1.41;83.84;96368.00;4732007;30;20473;-81
2023/12/24 11:13:36;;;;;;;0.90;0.90;;;;;;;-1.43;84.18;96362.94;4747120;30;20476;-83
2023/12/24 11:16:06;;;;;;;1.00;1.00;;;;;;;-1.46;84.47;96360.75;4747040;30;20531;-83
2023/12/24 11:18:43;;;;;;;1.05;1.05;;;;;;;-1.42;84.71;96372.50;4746859;30;20155;-82
2023/12/24 11:21:21;;;;;;;1.00;1.00;;;;;;;-1.35;85.07;96375.78;4746174;30;20500;-83
2023/12/24 11:24:21;;;;;;;1.08;1.08;;;;;;;-1.31;84.91;96376.94;4746218;30;20148;-83
2023/12/24 11:26:50;;;;;;;1.00;1.00;;;;;;;-1.36;85.06;96368.91;4712099;30;20065;-86
2023/12/24 11:29:47;;;;;;;1.00;1.00;;;;;;;-1.30;84.73;96388.31;4711484;30;20143;-84
2023/12/24 11:32:24;;;;;;;1.05;1.05;;;;;;;-1.33;84.87;96388.78;4711435;30;20111;-85
2023/12/24 11:34:57;;;;;;;1.05;1.05;;;;;;;-1.37;84.93;96380.53;4710566;30;20081;-85
2023/12/24 11:37:26;;;;;;;1.10;1.10;;;;;;;-1.33;85.03;96397.53;4712150;30;20053;-83
2023/12/24 11:40:31;;;;;;;1.10;1.10;;;;;;;-1.31;85.88;96389.38;4712485;30;20143;-83
2023/12/24 11:43:01;;;;;;;1.13;1.13;;;;;;;-1.29;86.11;96400.53;4695255;30;20060;-82